Time;durP1;ratioP1;P1;durP2;ratioP2;P2;SDS_P1;SDS_P2;PMS_P1;PMS_P2;Temp;Humidity;BMP_temperature;BMP_pressure;BME280_temperature;BME280_humidity;BME280_pressure;Samples;Min_cycle;Max_cycle;Signal;HPM_P1;HPM_P2
2022/02/02 00:00:21;;;;;;;5.65;1.80;;;4.40;99.90;;;;;;2603910;46;20112;31
2022/02/02 00:02:58;;;;;;;6.75;1.90;;;4.30;99.90;;;;;;2585442;54;21152;31
2022/02/02 00:05:37;;;;;;;7.43;1.88;;;4.40;99.90;;;;;;2585177;54;20022;31
2022/02/02 00:08:15;;;;;;;6.10;1.75;;;4.40;99.90;;;;;;2585112;54;20932;31
2022/02/02 00:13:40;;;;;;;4.67;1.80;;;4.50;99.90;;;;;;2585403;54;20027;31
2022/02/02 00:16:24;;;;;;;8.63;2.08;;;4.50;99.90;;;;;;2584919;54;20230;31
2022/02/02 00:19:01;;;;;;;6.85;2.00;;;4.50;99.90;;;;;;2585311;54;20045;31
2022/02/02 00:21:44;;;;;;;12.43;1.95;;;4.50;99.90;;;;;;2585012;54;20969;31
2022/02/02 00:24:25;;;;;;;7.03;2.08;;;4.50;99.90;;;;;;2585152;54;20027;31
2022/02/02 00:27:02;;;;;;;8.70;2.00;;;4.50;99.90;;;;;;2584880;54;20831;31
2022/02/02 00:29:39;;;;;;;8.50;1.88;;;4.50;99.90;;;;;;2585073;54;20962;31
2022/02/02 00:32:24;;;;;;;8.55;2.20;;;4.40;99.90;;;;;;2585138;54;20037;31
2022/02/02 00:34:58;;;;;;;11.20;2.80;;;4.50;99.90;;;;;;2603210;47;20954;31
2022/02/02 00:37:31;;;;;;;10.25;2.55;;;4.50;99.90;;;;;;2603058;47;20031;31
2022/02/02 00:40:09;;;;;;;12.90;2.80;;;4.40;99.90;;;;;;2585093;54;20026;31
2022/02/02 00:42:45;;;;;;;13.20;2.35;;;4.40;99.90;;;;;;2603207;47;20027;31
2022/02/02 00:45:19;;;;;;;8.50;1.90;;;4.40;99.90;;;;;;2585062;54;20902;31
2022/02/02 00:47:55;;;;;;;4.60;1.65;;;4.40;99.90;;;;;;2584752;54;20104;31
2022/02/02 00:50:28;;;;;;;9.65;1.85;;;4.30;99.90;;;;;;2585153;54;20916;31
2022/02/02 00:53:01;;;;;;;14.50;1.90;;;4.30;99.90;;;;;;2585455;54;20034;31
2022/02/02 00:58:24;;;;;;;7.35;1.90;;;4.30;99.90;;;;;;2585605;54;20936;31
2022/02/02 01:00:58;;;;;;;15.02;2.30;;;4.30;99.90;;;;;;2585796;54;20926;31
2022/02/02 01:03:35;;;;;;;17.65;2.10;;;4.40;99.90;;;;;;2585988;54;20060;31
2022/02/02 01:06:10;;;;;;;14.00;2.20;;;4.40;99.90;;;;;;2603617;46;20887;31
2022/02/02 01:09:07;;;;;;;7.80;1.80;;;4.40;99.90;;;;;;2585760;54;20053;31
2022/02/02 01:20:30;;;;;;;11.20;2.30;;;4.50;99.90;;;;;;2683804;39;21026;31
2022/02/02 01:28:35;;;;;;;10.57;2.50;;;4.50;99.90;;;;;;2585631;54;20755;31
2022/02/02 01:31:11;;;;;;;10.90;2.10;;;4.50;99.90;;;;;;2585848;54;20026;31
2022/02/02 01:33:47;;;;;;;9.40;1.80;;;4.50;99.90;;;;;;2683670;39;22384;31
2022/02/02 01:38:54;;;;;;;9.45;1.80;;;4.50;99.90;;;;;;2585717;54;21013;31
2022/02/02 01:41:32;;;;;;;13.80;1.85;;;4.40;99.90;;;;;;2585487;54;20928;31
2022/02/02 01:44:13;;;;;;;8.05;1.60;;;4.50;99.90;;;;;;2585822;54;21232;31
2022/02/02 01:46:48;;;;;;;11.70;2.10;;;4.50;99.90;;;;;;2585444;54;20030;31
2022/02/02 01:52:45;;;;;;;12.10;2.40;;;4.50;99.90;;;;;;2683668;39;22319;31
2022/02/02 01:55:28;;;;;;;8.35;1.50;;;4.50;99.90;;;;;;2603919;46;20937;31
2022/02/02 01:58:15;;;;;;;9.25;1.83;;;4.50;99.90;;;;;;2585342;54;20112;31
2022/02/02 02:00:49;;;;;;;9.05;1.60;;;4.50;99.90;;;;;;2585527;54;20030;31
2022/02/02 02:03:23;;;;;;;8.88;1.80;;;4.50;99.90;;;;;;2585296;54;20038;31
2022/02/02 02:05:54;;;;;;;12.75;2.05;;;4.50;99.90;;;;;;2603971;46;21179;31
2022/02/02 02:08:28;;;;;;;5.80;1.80;;;4.50;99.90;;;;;;2585162;54;20802;31
2022/02/02 02:11:03;;;;;;;10.80;2.53;;;4.50;99.90;;;;;;2585284;54;20577;31
2022/02/02 02:14:06;;;;;;;14.25;2.25;;;4.50;99.90;;;;;;2683990;39;21022;31
2022/02/02 02:16:40;;;;;;;16.40;2.63;;;4.50;99.90;;;;;;2585536;54;20877;31
2022/02/02 02:19:14;;;;;;;14.50;3.15;;;4.50;99.90;;;;;;2585380;54;20903;31
2022/02/02 02:21:49;;;;;;;15.00;3.10;;;4.50;99.90;;;;;;2604112;46;20029;31
2022/02/02 02:24:25;;;;;;;12.73;2.83;;;4.60;99.90;;;;;;2585641;54;20788;31
2022/02/02 02:26:59;;;;;;;11.32;2.53;;;4.50;99.90;;;;;;2585503;54;20039;31
2022/02/02 02:29:53;;;;;;;8.93;1.70;;;4.60;99.90;;;;;;2585511;54;20887;31
2022/02/02 02:32:45;;;;;;;10.35;2.17;;;4.50;99.90;;;;;;2585178;54;20969;31
2022/02/02 02:35:36;;;;;;;15.18;2.80;;;4.50;99.90;;;;;;2603670;46;20906;31
2022/02/02 02:57:41;;;;;;;8.98;2.03;;;4.50;99.90;;;;;;2585429;54;20054;31
2022/02/02 03:00:35;;;;;;;9.93;2.15;;;4.50;99.90;;;;;;2585217;54;20026;31
2022/02/02 03:52:58;;;;;;;4.28;1.10;;;4.40;99.90;;;;;;2585200;54;20289;31
2022/02/02 03:58:12;;;;;;;6.93;1.25;;;4.30;99.90;;;;;;2584875;54;20026;31
2022/02/02 04:00:58;;;;;;;5.30;0.95;;;4.30;99.90;;;;;;2585393;54;21115;31
2022/02/02 04:03:44;;;;;;;8.03;1.23;;;4.30;99.90;;;;;;2585209;54;20030;31
2022/02/02 04:06:23;;;;;;;7.25;0.77;;;4.30;99.90;;;;;;2585323;54;20034;31
2022/02/02 04:08:55;;;;;;;5.13;0.75;;;4.30;99.90;;;;;;2683028;39;21109;31
2022/02/02 04:11:37;;;;;;;4.25;0.65;;;4.30;99.90;;;;;;2584927;54;20085;31
2022/02/02 04:56:06;;;;;;;10.60;2.40;;;4.00;99.90;;;;;;2585692;54;20053;31
2022/02/02 04:58:48;;;;;;;16.08;2.67;;;3.90;99.90;;;;;;2585804;54;21001;31
2022/02/02 05:02:08;;;;;;;11.88;2.05;;;3.90;99.90;;;;;;2585743;54;20048;31
2022/02/02 05:04:49;;;;;;;13.95;2.30;;;4.00;99.90;;;;;;2604075;46;20032;31
2022/02/02 05:07:28;;;;;;;16.17;2.58;;;4.00;99.90;;;;;;2585636;54;20061;31
2022/02/02 05:10:11;;;;;;;14.85;2.60;;;4.00;99.90;;;;;;2585615;54;20045;31
2022/02/02 05:15:57;;;;;;;11.50;2.05;;;4.00;99.90;;;;;;2585819;54;20026;31
2022/02/02 05:18:59;;;;;;;14.00;2.00;;;4.10;99.90;;;;;;2585433;54;20086;31
2022/02/02 05:44:11;;;;;;;15.55;2.97;;;4.10;99.90;;;;;;2604448;46;20890;31
2022/02/02 05:49:52;;;;;;;11.30;2.28;;;4.10;99.90;;;;;;2604210;46;20796;31
2022/02/02 05:52:24;;;;;;;13.80;2.70;;;4.10;99.90;;;;;;2585817;54;22453;31
2022/02/02 05:54:58;;;;;;;8.83;1.90;;;4.10;99.90;;;;;;2585763;54;20023;31
2022/02/02 05:57:34;;;;;;;15.98;2.58;;;4.10;99.90;;;;;;2585371;54;20038;31
2022/02/02 06:00:07;;;;;;;13.70;2.07;;;4.10;99.90;;;;;;2683626;39;22357;31
2022/02/02 06:02:54;;;;;;;13.70;2.10;;;4.10;99.90;;;;;;2585689;54;20320;31
2022/02/02 06:05:28;;;;;;;17.38;2.83;;;4.10;99.90;;;;;;2604038;46;20026;31
2022/02/02 06:08:01;;;;;;;15.23;2.78;;;4.10;99.90;;;;;;2585466;54;20937;31
2022/02/02 06:10:34;;;;;;;17.92;3.08;;;4.10;99.90;;;;;;2585582;54;20022;31
2022/02/02 06:13:07;;;;;;;17.55;3.15;;;4.10;99.90;;;;;;2603690;46;20042;31
2022/02/02 06:15:39;;;;;;;13.30;2.22;;;4.00;99.90;;;;;;2585590;54;20026;31
2022/02/02 06:18:14;;;;;;;14.75;2.50;;;4.10;99.90;;;;;;2585670;54;20033;31
2022/02/02 06:20:47;;;;;;;12.90;2.73;;;4.10;99.90;;;;;;2585595;54;20104;31
2022/02/02 06:23:21;;;;;;;20.35;2.25;;;4.10;99.90;;;;;;2604113;46;20026;31
2022/02/02 06:25:54;;;;;;;11.27;2.93;;;4.10;99.90;;;;;;2585786;54;20030;31
2022/02/02 06:28:28;;;;;;;20.33;2.50;;;4.00;99.90;;;;;;2585425;54;20915;31
2022/02/02 06:31:01;;;;;;;11.90;3.45;;;4.00;99.90;;;;;;2683600;39;22388;31
2022/02/02 06:36:26;;;;;;;11.95;2.55;;;3.90;99.90;;;;;;2585366;54;20908;31
2022/02/02 06:39:03;;;;;;;17.20;2.77;;;3.90;99.90;;;;;;2585345;54;20030;31
2022/02/02 06:41:39;;;;;;;10.77;2.60;;;3.90;99.90;;;;;;2585301;54;20027;31
2022/02/02 06:44:12;;;;;;;17.20;2.80;;;3.90;99.90;;;;;;2585381;54;20909;31
2022/02/02 06:46:47;;;;;;;12.32;3.10;;;3.90;99.90;;;;;;2603458;46;20927;31
2022/02/02 06:49:23;;;;;;;12.57;2.72;;;3.90;99.90;;;;;;2585225;54;20034;31
2022/02/02 06:52:02;;;;;;;12.95;2.47;;;3.80;99.90;;;;;;2702129;39;22396;31
2022/02/02 06:54:49;;;;;;;9.25;2.35;;;3.90;99.90;;;;;;2603667;46;20033;31
2022/02/02 06:57:24;;;;;;;17.70;3.40;;;3.80;99.90;;;;;;2585391;54;20030;31
2022/02/02 07:00:08;;;;;;;19.80;3.30;;;3.90;99.90;;;;;;2585595;54;20080;31
2022/02/02 07:02:49;;;;;;;18.70;3.17;;;3.90;99.90;;;;;;2585520;54;20026;31
2022/02/02 07:05:39;;;;;;;11.95;3.90;;;3.90;99.90;;;;;;2585439;54;20785;31
2022/02/02 07:08:37;;;;;;;13.35;2.50;;;3.90;99.90;;;;;;2585295;54;20062;31
2022/02/02 07:11:29;;;;;;;13.50;2.40;;;3.90;99.90;;;;;;2584777;54;20053;31
2022/02/02 07:14:14;;;;;;;14.80;3.20;;;4.00;99.90;;;;;;2585411;54;20910;31
2022/02/02 07:17:03;;;;;;;13.90;2.80;;;4.00;99.90;;;;;;2683285;39;20543;31
2022/02/02 07:19:53;;;;;;;16.90;2.75;;;4.00;99.90;;;;;;2584883;54;20233;31
2022/02/02 07:22:46;;;;;;;18.00;3.05;;;4.00;99.90;;;;;;2603768;46;21127;31
2022/02/02 07:28:11;;;;;;;18.70;2.90;;;4.00;99.90;;;;;;2585368;54;20110;31
2022/02/02 07:33:27;;;;;;;18.10;3.67;;;4.00;99.90;;;;;;2603760;46;21157;31
2022/02/02 07:36:08;;;;;;;15.00;2.50;;;4.00;99.90;;;;;;2585895;46;20034;31
2022/02/02 07:38:51;;;;;;;16.83;2.80;;;3.90;99.90;;;;;;2585506;54;20049;31
2022/02/02 07:41:32;;;;;;;11.50;2.50;;;4.10;99.90;;;;;;2584834;54;20336;31
2022/02/02 07:44:13;;;;;;;20.30;3.35;;;4.20;99.90;;;;;;2585220;54;20979;31
2022/02/02 07:46:48;;;;;;;14.80;2.70;;;4.30;99.90;;;;;;2603361;46;20794;31
2022/02/02 07:49:29;;;;;;;14.85;3.20;;;4.30;99.90;;;;;;2585095;54;20069;31
2022/02/02 07:52:03;;;;;;;14.33;2.43;;;4.40;99.90;;;;;;2585249;54;21261;31
2022/02/02 07:54:41;;;;;;;11.40;2.65;;;4.40;99.90;;;;;;2585072;54;20032;31
2022/02/02 07:57:28;;;;;;;14.40;2.10;;;4.50;99.90;;;;;;2683177;39;21177;31
2022/02/02 08:00:18;;;;;;;13.20;2.57;;;4.70;99.90;;;;;;2585023;54;20234;31
2022/02/02 08:03:03;;;;;;;14.90;2.80;;;4.70;99.90;;;;;;2585140;54;20852;31
2022/02/02 08:05:44;;;;;;;11.75;2.55;;;4.70;99.90;;;;;;2603354;46;21363;31
2022/02/02 08:08:33;;;;;;;13.97;2.97;;;4.60;99.90;;;;;;2585306;54;20972;31
2022/02/02 08:11:13;;;;;;;11.85;3.00;;;4.50;99.90;;;;;;2584690;54;20780;31
2022/02/02 08:13:55;;;;;;;12.38;2.97;;;4.50;99.90;;;;;;2701531;39;22306;31
2022/02/02 08:16:37;;;;;;;10.43;2.45;;;4.40;99.90;;;;;;2585078;54;20030;31
2022/02/02 08:19:18;;;;;;;5.43;2.00;;;4.50;99.90;;;;;;2585097;54;20926;31
2022/02/02 08:21:54;;;;;;;10.93;2.50;;;4.40;99.90;;;;;;2603471;47;20102;31
2022/02/02 08:24:29;;;;;;;10.30;2.60;;;4.40;99.90;;;;;;2584957;54;21008;31
2022/02/02 08:27:13;;;;;;;14.50;2.90;;;4.40;99.90;;;;;;2584768;54;20022;31
2022/02/02 08:29:54;;;;;;;12.65;3.10;;;4.40;99.90;;;;;;2585044;54;20790;31
2022/02/02 08:32:39;;;;;;;13.68;2.60;;;4.40;99.90;;;;;;2584914;54;20074;31
2022/02/02 08:35:19;;;;;;;17.27;3.20;;;4.40;99.90;;;;;;2585021;54;20042;31
2022/02/02 08:37:58;;;;;;;17.13;3.25;;;4.40;99.90;;;;;;2585034;54;20918;31
2022/02/02 08:40:38;;;;;;;13.30;3.00;;;4.50;99.90;;;;;;2584847;54;20922;31
2022/02/02 08:43:18;;;;;;;12.73;3.33;;;4.60;99.90;;;;;;2585032;54;20077;31
2022/02/02 08:46:04;;;;;;;18.70;3.92;;;4.70;99.90;;;;;;2584437;54;20097;31
2022/02/02 08:48:44;;;;;;;18.70;3.20;;;4.70;99.90;;;;;;2584969;54;20046;31
2022/02/02 08:51:21;;;;;;;15.65;3.20;;;4.80;99.90;;;;;;2584963;54;21291;31
2022/02/02 08:54:07;;;;;;;14.20;3.35;;;4.80;99.90;;;;;;2584675;54;20812;31
2022/02/02 08:57:12;;;;;;;;;;;4.90;99.90;;;;;;2585116;54;20830;31
2022/02/02 08:59:58;;;;;;;15.45;3.13;;;5.00;99.90;;;;;;2603339;47;19947;31
2022/02/02 09:02:39;;;;;;;13.95;3.00;;;5.10;99.90;;;;;;2585041;54;20833;31
2022/02/02 09:05:22;;;;;;;14.40;3.07;;;5.20;99.90;;;;;;2584311;54;20967;31
2022/02/02 09:08:19;;;;;;;11.93;2.90;;;5.30;99.90;;;;;;2584782;54;21110;31
2022/02/02 09:25:09;;;;;;;7.50;1.67;;;6.50;99.90;;;;;;2585883;54;22408;31
2022/02/02 09:36:21;;;;;;;10.27;2.13;;;6.00;99.90;;;;;;2585074;54;20991;31
2022/02/02 09:39:08;;;;;;;9.17;2.03;;;5.80;99.90;;;;;;2584715;54;20034;31
2022/02/02 09:41:49;;;;;;;12.77;1.80;;;5.70;99.90;;;;;;2603871;46;20239;31
2022/02/02 09:44:33;;;;;;;12.80;2.60;;;5.60;99.90;;;;;;2584661;54;20950;31
2022/02/02 09:47:18;;;;;;;11.77;1.95;;;5.60;99.90;;;;;;2585364;54;20887;31
2022/02/02 09:50:00;;;;;;;10.35;1.83;;;5.60;99.90;;;;;;2603976;46;20927;31
2022/02/02 09:52:39;;;;;;;9.70;2.25;;;5.50;99.90;;;;;;2603990;46;20772;31
2022/02/02 09:55:52;;;;;;;14.10;2.80;;;5.50;99.90;;;;;;2585576;54;20022;31
2022/02/02 09:58:56;;;;;;;14.90;2.45;;;5.50;99.90;;;;;;2603569;46;20053;31
2022/02/02 10:04:32;;;;;;;17.50;3.43;;;5.40;99.90;;;;;;2585554;54;20057;31
2022/02/02 10:10:47;;;;;;;11.70;2.20;;;5.30;99.90;;;;;;2585494;54;20052;31
2022/02/02 10:13:46;;;;;;;12.38;2.67;;;5.20;99.90;;;;;;2585502;54;20396;31
2022/02/02 10:16:21;;;;;;;13.30;2.30;;;5.20;99.90;;;;;;2585563;54;20980;31
2022/02/02 10:19:16;;;;;;;13.37;3.20;;;5.30;99.90;;;;;;2594266;46;20031;31
2022/02/02 10:21:50;;;;;;;17.52;3.13;;;5.20;99.90;;;;;;2585197;54;21131;31
2022/02/02 10:27:34;;;;;;;14.45;2.97;;;5.20;99.90;;;;;;2603784;46;20825;31
2022/02/02 10:30:27;;;;;;;15.25;2.50;;;5.20;99.90;;;;;;2585375;54;20798;31
2022/02/02 10:33:07;;;;;;;13.73;2.92;;;5.20;99.90;;;;;;2585277;54;20046;31
2022/02/02 10:35:39;;;;;;;14.15;2.50;;;5.20;99.90;;;;;;2585554;54;20925;31
2022/02/02 10:38:28;;;;;;;17.08;2.60;;;5.20;99.90;;;;;;2585350;54;20022;31
2022/02/02 10:43:37;;;;;;;13.37;2.37;;;5.40;99.90;;;;;;2585010;54;20930;31
2022/02/02 10:46:21;;;;;;;18.92;3.90;;;5.40;99.90;;;;;;2585420;54;20814;31
2022/02/02 10:49:01;;;;;;;15.60;3.20;;;5.50;99.90;;;;;;2585318;54;21360;31
2022/02/02 10:51:41;;;;;;;9.38;2.58;;;5.50;99.90;;;;;;2585331;54;20986;31
2022/02/02 10:54:26;;;;;;;16.40;2.80;;;5.50;99.90;;;;;;2683299;39;21057;31
2022/02/02 10:57:09;;;;;;;8.70;2.10;;;5.60;99.90;;;;;;2585150;54;20944;31
2022/02/02 11:08:17;;;;;;;12.88;2.58;;;5.60;99.90;;;;;;2585213;54;20976;31
2022/02/02 11:10:51;;;;;;;14.75;3.22;;;5.60;99.90;;;;;;2585286;54;20901;31
2022/02/02 11:13:28;;;;;;;13.85;2.30;;;5.60;99.90;;;;;;2585146;54;20790;31
2022/02/02 11:16:07;;;;;;;13.38;3.45;;;5.50;99.90;;;;;;2682928;39;21508;31
2022/02/02 11:18:51;;;;;;;16.50;2.92;;;5.50;99.90;;;;;;2585246;54;20886;31
2022/02/02 11:21:29;;;;;;;10.05;2.47;;;5.50;99.90;;;;;;2585368;54;20076;31
2022/02/02 11:24:15;;;;;;;12.87;2.53;;;5.30;99.90;;;;;;2603710;46;20030;31
2022/02/02 11:26:51;;;;;;;15.73;2.60;;;5.20;99.90;;;;;;2585168;54;20969;31
2022/02/02 11:29:40;;;;;;;14.55;2.25;;;5.10;99.90;;;;;;2585556;54;20902;31
2022/02/02 11:32:16;;;;;;;9.00;2.40;;;4.90;99.90;;;;;;2584928;54;20065;31
2022/02/02 11:35:06;;;;;;;9.35;1.70;;;5.00;99.90;;;;;;2585235;54;20045;31
2022/02/02 11:37:41;;;;;;;11.93;3.45;;;5.00;99.90;;;;;;2585317;54;21208;31
2022/02/02 11:40:20;;;;;;;13.00;2.60;;;5.00;99.90;;;;;;2683336;39;21032;31
2022/02/02 11:45:40;;;;;;;7.05;2.33;;;4.90;99.90;;;;;;2603332;46;20922;31
2022/02/02 11:48:20;;;;;;;9.55;1.73;;;4.80;99.90;;;;;;2603918;46;20910;31
2022/02/02 11:51:01;;;;;;;7.93;2.08;;;4.70;99.90;;;;;;2585024;54;20101;31
2022/02/02 11:54:01;;;;;;;8.68;1.85;;;4.80;99.90;;;;;;2585264;54;20030;31
2022/02/02 11:56:33;;;;;;;8.60;1.90;;;4.80;99.90;;;;;;2603593;46;21159;31
2022/02/02 11:59:24;;;;;;;;;;;4.80;99.90;;;;;;2585259;54;20032;31
2022/02/02 12:02:21;;;;;;;9.77;1.85;;;4.80;99.90;;;;;;2603917;46;19941;31
2022/02/02 12:05:06;;;;;;;5.60;1.60;;;4.80;99.90;;;;;;2585120;54;20899;31
2022/02/02 12:08:11;;;;;;;6.75;1.35;;;4.80;99.90;;;;;;2683163;39;21000;31
2022/02/02 12:11:18;;;;;;;6.13;1.20;;;4.90;99.90;;;;;;2585127;54;20030;31
2022/02/02 12:49:11;;;;;;;7.28;1.77;;;4.90;99.90;;;;;;2604424;47;20931;31
2022/02/02 12:57:22;;;;;;;16.00;3.80;;;4.90;99.90;;;;;;2586065;54;20030;31
2022/02/02 13:00:10;;;;;;;10.75;2.45;;;4.90;99.90;;;;;;2585617;54;20052;31
2022/02/02 13:02:45;;;;;;;12.30;2.45;;;4.80;99.90;;;;;;2585830;54;20026;31
2022/02/02 13:05:26;;;;;;;8.77;1.80;;;4.80;99.90;;;;;;2604017;46;20836;31
2022/02/02 13:08:00;;;;;;;9.03;2.10;;;4.80;99.90;;;;;;2584773;54;20986;31
2022/02/02 13:10:36;;;;;;;10.95;2.25;;;4.80;99.90;;;;;;2604061;46;20045;31
2022/02/02 13:13:16;;;;;;;8.40;1.75;;;4.70;99.90;;;;;;2585548;54;20127;31
2022/02/02 13:16:08;;;;;;;6.83;1.40;;;4.70;99.90;;;;;;2584942;54;20039;31
2022/02/02 13:18:44;;;;;;;5.80;1.33;;;4.70;99.90;;;;;;2585852;54;20030;31
2022/02/02 13:21:25;;;;;;;6.18;1.40;;;4.60;99.90;;;;;;2585563;54;21038;31
2022/02/02 13:24:04;;;;;;;6.37;1.10;;;4.60;99.90;;;;;;2585735;54;20032;31
2022/02/02 13:26:45;;;;;;;7.40;1.40;;;4.60;99.90;;;;;;2585735;54;20944;31
2022/02/02 13:29:27;;;;;;;5.95;1.20;;;4.60;99.90;;;;;;2585607;54;20833;31
2022/02/02 13:32:16;;;;;;;7.45;1.75;;;4.60;99.90;;;;;;2585639;54;20058;31
2022/02/02 13:34:53;;;;;;;4.47;1.30;;;4.60;99.90;;;;;;2585577;54;20952;31
2022/02/02 13:43:39;;;;;;;7.17;1.27;;;4.60;99.90;;;;;;2585453;54;20042;31
2022/02/02 13:46:28;;;;;;;6.70;1.45;;;4.60;99.90;;;;;;2585437;54;20791;31
2022/02/02 13:49:58;;;;;;;6.75;1.40;;;4.60;99.90;;;;;;2585585;54;20124;31
2022/02/02 13:52:50;;;;;;;8.38;1.65;;;4.60;99.90;;;;;;2585516;54;20943;31
2022/02/02 13:55:35;;;;;;;7.32;1.95;;;4.60;99.90;;;;;;2603969;46;20049;31
2022/02/02 13:58:38;;;;;;;7.23;2.00;;;4.60;99.90;;;;;;2585500;54;19994;31
2022/02/02 14:01:21;;;;;;;7.47;1.20;;;4.60;99.90;;;;;;2585855;54;20034;31
2022/02/02 14:06:56;;;;;;;7.47;2.20;;;4.60;99.90;;;;;;2585219;54;20027;31
2022/02/02 14:09:40;;;;;;;4.00;1.30;;;4.50;99.90;;;;;;2585717;54;20952;31
2022/02/02 14:32:14;;;;;;;8.87;2.30;;;4.60;99.90;;;;;;2585361;54;20080;31
2022/02/02 14:35:10;;;;;;;;;;;4.60;99.90;;;;;;2585788;54;20038;31
2022/02/02 14:37:49;;;;;;;7.00;1.55;;;4.60;99.90;;;;;;2585455;54;20709;31
2022/02/02 14:40:34;;;;;;;10.13;1.35;;;4.60;99.90;;;;;;2585497;54;20049;31
2022/02/02 14:45:47;;;;;;;10.30;2.00;;;4.60;99.90;;;;;;2585646;54;20030;31
2022/02/02 14:48:25;;;;;;;11.27;3.33;;;4.60;99.90;;;;;;2603592;46;22515;31
2022/02/02 14:51:07;;;;;;;11.10;2.38;;;4.50;99.90;;;;;;2604160;46;20022;31
2022/02/02 14:54:09;;;;;;;10.75;2.30;;;4.50;99.90;;;;;;2585196;54;20030;31
2022/02/02 15:28:41;;;;;;;7.30;1.45;;;4.30;99.90;;;;;;2584932;54;20038;31
2022/02/02 15:31:20;;;;;;;5.65;1.50;;;4.30;99.90;;;;;;2585328;54;21011;31
2022/02/02 15:33:58;;;;;;;6.05;1.30;;;4.30;99.90;;;;;;2585496;54;20940;31
2022/02/02 15:37:07;;;;;;;8.40;1.75;;;4.30;99.90;;;;;;2585524;54;20890;31
2022/02/02 15:39:42;;;;;;;5.83;1.67;;;4.30;99.90;;;;;;2584931;54;20078;31
2022/02/02 15:42:30;;;;;;;4.13;1.00;;;4.20;99.90;;;;;;2585351;54;20023;31
2022/02/02 15:59:06;;;;;;;5.95;1.40;;;4.10;99.90;;;;;;2585015;54;20057;31
2022/02/02 16:04:36;;;;;;;7.25;1.90;;;4.10;99.90;;;;;;2682572;39;21464;31
2022/02/02 16:07:22;;;;;;;7.90;2.88;;;4.10;99.90;;;;;;2585064;54;20030;31
2022/02/02 16:09:57;;;;;;;6.05;1.50;;;4.10;99.90;;;;;;2585352;54;22537;31
2022/02/02 16:12:38;;;;;;;5.80;1.30;;;4.00;99.90;;;;;;2603418;46;20129;31
2022/02/02 16:15:21;;;;;;;4.20;1.70;;;4.00;99.90;;;;;;2585124;54;20775;31
2022/02/02 16:34:55;;;;;;;2.20;0.90;;;3.60;99.90;;;;;;2604004;46;21033;31
2022/02/02 16:37:32;;;;;;;3.78;0.82;;;3.50;99.90;;;;;;2585796;54;20075;31
2022/02/02 16:40:14;;;;;;;5.47;1.42;;;3.30;99.90;;;;;;2585333;54;20165;31
2022/02/02 16:45:47;;;;;;;1.83;0.77;;;3.20;99.90;;;;;;2585649;54;20055;31
2022/02/02 16:48:20;;;;;;;2.58;0.90;;;3.10;99.90;;;;;;2585612;54;20056;31
2022/02/02 16:50:56;;;;;;;2.28;0.85;;;3.10;99.90;;;;;;2585638;54;20967;31
2022/02/02 16:53:39;;;;;;;;;;;3.00;99.90;;;;;;2585996;54;20022;31
2022/02/02 16:56:31;;;;;;;2.90;1.30;;;2.90;99.90;;;;;;2585386;54;20877;31
2022/02/02 17:25:20;;;;;;;4.70;2.40;;;2.70;99.90;;;;;;2684118;39;21031;31
2022/02/02 17:33:14;;;;;;;5.05;2.80;;;2.70;99.90;;;;;;2585481;54;20655;31
2022/02/02 17:36:04;;;;;;;5.03;2.63;;;2.70;99.90;;;;;;2603535;47;20800;31
2022/02/02 17:38:49;;;;;;;5.80;2.55;;;2.60;99.90;;;;;;2701977;39;20497;31
2022/02/02 18:29:21;;;;;;;5.82;2.25;;;2.50;99.90;;;;;;2582321;54;20800;31
2022/02/02 18:46:26;;;;;;;5.53;3.75;;;2.50;99.90;;;;;;2584815;54;20737;31
2022/02/02 18:55:23;;;;;;;4.18;2.97;;;2.50;99.90;;;;;;2585217;54;20258;31
2022/02/02 18:58:06;;;;;;;5.00;2.90;;;2.50;99.90;;;;;;2585537;54;20060;31
2022/02/02 20:01:45;;;;;;;1.58;0.93;;;2.10;99.90;;;;;;2682778;39;22396;31
2022/02/02 20:07:26;;;;;;;4.70;1.00;;;2.00;99.90;;;;;;2585261;54;20033;31
2022/02/02 20:13:27;;;;;;;2.87;1.40;;;1.90;99.90;;;;;;2585471;54;20080;31
2022/02/02 20:19:10;;;;;;;4.13;1.23;;;1.80;99.90;;;;;;2603622;47;20027;31
2022/02/02 20:24:58;;;;;;;2.63;1.10;;;1.80;99.90;;;;;;2585108;54;20906;31
2022/02/02 20:27:52;;;;;;;5.67;1.73;;;1.70;99.90;;;;;;2585220;54;20076;31
2022/02/02 20:33:36;;;;;;;3.23;1.30;;;1.60;99.90;;;;;;2584853;54;21004;31
2022/02/02 20:36:29;;;;;;;6.17;1.50;;;1.50;99.90;;;;;;2584781;54;20030;31
2022/02/02 20:39:09;;;;;;;7.95;2.05;;;1.40;99.90;;;;;;2754273;31;21323;31
2022/02/02 20:41:47;;;;;;;3.33;1.30;;;1.40;99.90;;;;;;2584977;54;20980;31
2022/02/02 20:44:35;;;;;;;1.88;1.00;;;1.50;99.90;;;;;;2585395;54;20978;31
2022/02/02 21:07:53;;;;;;;6.38;1.70;;;1.40;99.90;;;;;;2603392;47;20242;31
2022/02/02 21:10:45;;;;;;;7.10;2.22;;;1.40;99.90;;;;;;2585892;54;20917;31
2022/02/02 21:16:14;;;;;;;7.05;2.20;;;1.30;99.90;;;;;;2586002;54;20881;31
2022/02/02 21:18:54;;;;;;;6.90;1.80;;;1.30;99.90;;;;;;2593505;46;20994;31
2022/02/02 21:24:49;;;;;;;5.75;1.35;;;1.20;99.90;;;;;;2604370;46;20085;31
2022/02/02 21:30:06;;;;;;;2.78;0.98;;;1.20;99.90;;;;;;2585750;54;20023;31
2022/02/02 21:33:05;;;;;;;2.28;0.90;;;1.10;99.90;;;;;;2603692;46;21127;31
2022/02/02 21:35:58;;;;;;;2.90;1.05;;;1.10;99.90;;;;;;2585374;54;21017;31
2022/02/02 21:41:45;;;;;;;3.72;1.05;;;1.10;99.90;;;;;;2585484;54;20026;31
2022/02/02 21:44:28;;;;;;;3.25;1.10;;;1.10;99.90;;;;;;2586022;54;22416;31
2022/02/02 21:47:23;;;;;;;5.00;1.20;;;1.00;99.90;;;;;;2585736;54;20916;31
2022/02/02 22:18:48;;;;;;;4.75;1.50;;;0.80;99.90;;;;;;2585950;54;21956;31
2022/02/02 22:21:34;;;;;;;4.07;1.23;;;0.80;99.90;;;;;;2585822;46;20122;31
2022/02/02 22:49:19;;;;;;;6.05;2.20;;;0.70;99.90;;;;;;2584276;54;20022;31
2022/02/02 22:52:13;;;;;;;7.68;2.35;;;0.70;99.90;;;;;;2584855;54;20061;31
2022/02/02 22:55:19;;;;;;;4.88;2.15;;;0.70;99.90;;;;;;2584894;54;20034;31
2022/02/02 23:01:49;;;;;;;;;;;;;;;;;;;;;
2022/02/02 23:13:38;;;;;;;8.27;2.40;;;0.60;99.90;;;;;;2588692;46;20582;31
2022/02/02 23:18:55;;;;;;;6.75;2.20;;;0.50;99.90;;;;;;2602255;46;20544;31
2022/02/02 23:44:02;;;;;;;12.45;4.65;;;0.40;99.90;;;;;;2682668;39;21602;31
